createdAt,value
2018-04-22T00:00:20.136Z,5.20
2018-04-22T00:02:46.547Z,6.60
2018-04-22T00:05:13.116Z,6.90
2018-04-22T00:07:41.219Z,7.10
2018-04-22T00:10:08.027Z,7.50
2018-04-22T00:12:38.020Z,6.20
2018-04-22T00:15:04.620Z,7.17
2018-04-22T00:17:31.743Z,6.00
2018-04-22T00:19:58.363Z,5.63
2018-04-22T00:22:26.343Z,6.40
2018-04-22T00:24:52.949Z,5.30
2018-04-22T00:27:19.490Z,4.70
2018-04-22T00:29:47.072Z,5.23
2018-04-22T00:32:13.718Z,6.00
2018-04-22T00:34:40.170Z,4.63
2018-04-22T00:37:06.612Z,5.20
2018-04-22T00:39:33.117Z,4.70
2018-04-22T00:41:59.744Z,5.20
2018-04-22T00:44:26.392Z,5.00
2018-04-22T00:46:53.260Z,5.07
2018-04-22T00:49:19.790Z,5.10
2018-04-22T00:51:46.307Z,5.17
2018-04-22T00:54:20.235Z,5.57
2018-04-22T00:56:46.804Z,6.10
2018-04-22T00:59:13.383Z,5.30
2018-04-22T01:01:39.978Z,5.60
2018-04-22T01:04:06.664Z,6.70
2018-04-22T01:06:34.851Z,5.63
2018-04-22T01:09:01.476Z,5.00
2018-04-22T01:11:28.084Z,5.30
2018-04-22T01:13:55.418Z,5.80
2018-04-22T01:16:22.718Z,5.30
2018-04-22T01:18:49.726Z,5.00
2018-04-22T01:21:16.690Z,5.90
2018-04-22T01:23:43.575Z,5.63
2018-04-22T01:26:10.158Z,5.97
2018-04-22T01:28:36.703Z,5.67
2018-04-22T01:31:03.351Z,5.90
2018-04-22T01:33:30.654Z,6.33
2018-04-22T01:35:57.928Z,5.67
2018-04-22T01:38:24.829Z,6.80
2018-04-22T01:40:52.098Z,5.90
2018-04-22T01:43:19.006Z,6.10
2018-04-22T01:45:45.492Z,5.60
2018-04-22T01:48:12.337Z,6.00
2018-04-22T01:50:38.972Z,6.43
2018-04-22T01:53:05.503Z,5.87
2018-04-22T01:55:31.992Z,6.03
2018-04-22T01:57:58.405Z,5.83
2018-04-22T02:00:24.938Z,7.20
2018-04-22T02:02:51.452Z,6.13
2018-04-22T02:05:18.001Z,6.73
2018-04-22T02:07:44.472Z,6.87
2018-04-22T02:10:12.678Z,5.63
2018-04-22T02:12:39.082Z,6.30
2018-04-22T02:15:05.819Z,7.07
2018-04-22T02:17:33.249Z,6.57
2018-04-22T02:20:00.406Z,6.40
2018-04-22T02:22:26.998Z,7.03
2018-04-22T02:24:53.485Z,6.70
2018-04-22T02:27:20.629Z,7.03
2018-04-22T02:29:47.328Z,7.13
2018-04-22T02:32:13.777Z,7.50
2018-04-22T02:34:40.953Z,6.70
2018-04-22T02:37:08.400Z,7.13
2018-04-22T02:39:34.942Z,7.10
2018-04-22T02:42:01.787Z,7.27
2018-04-22T02:44:28.323Z,8.20
2018-04-22T02:46:56.069Z,6.17
2018-04-22T02:49:22.631Z,6.37
2018-04-22T02:51:49.127Z,6.57
2018-04-22T02:54:15.697Z,6.80
2018-04-22T02:56:42.875Z,6.63
2018-04-22T02:59:10.603Z,6.27
2018-04-22T03:01:37.020Z,7.57
2018-04-22T03:04:03.606Z,6.83
2018-04-22T03:06:30.858Z,6.90
2018-04-22T03:08:57.496Z,6.80
2018-04-22T03:11:23.989Z,6.50
2018-04-22T03:13:50.464Z,7.67
2018-04-22T03:16:16.965Z,7.37
2018-04-22T03:18:43.520Z,6.80
2018-04-22T03:21:10.578Z,6.90
2018-04-22T03:23:37.123Z,7.13
2018-04-22T03:26:03.713Z,7.13
2018-04-22T03:28:30.633Z,6.70
2018-04-22T03:30:57.076Z,6.33
2018-04-22T03:33:23.762Z,6.03
2018-04-22T03:35:50.242Z,6.30
2018-04-22T03:38:16.794Z,7.83
2018-04-22T03:40:43.342Z,7.97
2018-04-22T03:43:10.558Z,7.63
2018-04-22T03:45:37.448Z,7.70
2018-04-22T03:51:01.868Z,6.70
2018-04-22T03:53:28.534Z,8.13
2018-04-22T03:55:55.098Z,7.50
2018-04-22T03:58:23.474Z,8.37
2018-04-22T04:00:50.027Z,7.70
2018-04-22T04:03:16.465Z,8.07
2018-04-22T04:05:42.902Z,9.67
2018-04-22T04:08:09.442Z,8.20
2018-04-22T04:10:37.041Z,7.80
2018-04-22T04:13:03.513Z,8.70
2018-04-22T04:15:30.798Z,8.30
2018-04-22T04:21:11.891Z,7.33
2018-04-22T04:23:45.966Z,8.37
2018-04-22T04:29:27.684Z,8.00
2018-04-22T04:31:54.193Z,8.47
2018-04-22T04:34:20.771Z,8.53
2018-04-22T04:36:48.966Z,7.83
2018-04-22T04:39:15.699Z,7.43
2018-04-22T04:41:42.207Z,7.63
2018-04-22T04:44:09.172Z,8.33
2018-04-22T04:46:35.786Z,7.43
2018-04-22T04:49:02.234Z,8.00
2018-04-22T04:51:28.792Z,8.03
2018-04-22T04:53:55.452Z,8.03
2018-04-22T04:56:22.017Z,7.73
2018-04-22T04:58:48.701Z,7.70
2018-04-22T05:01:15.218Z,7.23
2018-04-22T05:03:42.476Z,7.20
2018-04-22T05:06:09.088Z,8.17
2018-04-22T05:08:35.623Z,7.70
2018-04-22T05:11:03.187Z,7.27
2018-04-22T05:13:29.989Z,8.33
2018-04-22T05:15:56.576Z,7.77
2018-04-22T05:18:23.074Z,9.43
2018-04-22T05:20:49.561Z,7.53
2018-04-22T05:23:16.380Z,7.83
2018-04-22T05:25:43.113Z,7.20
2018-04-22T05:28:10.736Z,7.57
2018-04-22T05:30:37.238Z,8.37
2018-04-22T05:33:04.435Z,7.37
2018-04-22T05:35:32.097Z,8.27
2018-04-22T05:37:58.531Z,8.00
2018-04-22T05:40:25.046Z,7.90
2018-04-22T05:42:51.552Z,8.07
2018-04-22T05:45:18.495Z,8.20
2018-04-22T05:47:44.947Z,7.80
2018-04-22T05:50:11.412Z,7.90
2018-04-22T05:52:38.633Z,8.30
2018-04-22T05:55:05.124Z,9.17
2018-04-22T05:57:33.273Z,8.30
2018-04-22T05:59:59.830Z,8.57
2018-04-22T06:02:26.448Z,7.60
2018-04-22T06:04:53.041Z,7.70
2018-04-22T06:07:19.587Z,8.63
2018-04-22T06:09:46.113Z,9.37
2018-04-22T06:12:14.220Z,9.20
2018-04-22T06:14:40.747Z,8.50
2018-04-22T06:17:07.261Z,8.33
2018-04-22T06:19:40.633Z,8.23
2018-04-22T06:22:07.094Z,8.00
2018-04-22T06:24:33.711Z,8.43
2018-04-22T06:27:00.201Z,8.43
2018-04-22T06:29:26.806Z,9.00
2018-04-22T06:31:55.012Z,8.10
2018-04-22T06:34:23.062Z,7.83
2018-04-22T06:36:50.517Z,8.60
2018-04-22T06:39:18.583Z,7.87
2018-04-22T06:41:45.191Z,6.93
2018-04-22T06:44:11.849Z,7.73
2018-04-22T06:46:38.385Z,7.80
2018-04-22T06:49:05.111Z,8.13
2018-04-22T06:51:33.371Z,7.03
2018-04-22T06:53:59.965Z,6.80
2018-04-22T06:56:26.561Z,7.23
2018-04-22T06:58:54.769Z,8.13
2018-04-22T07:01:21.684Z,7.77
2018-04-22T07:03:48.550Z,6.60
2018-04-22T07:06:15.063Z,7.30
2018-04-22T07:08:42.730Z,7.57
2018-04-22T07:11:10.181Z,6.63
2018-04-22T07:13:36.850Z,8.80
2018-04-22T07:16:04.714Z,7.50
2018-04-22T07:18:33.282Z,6.97
2018-04-22T07:20:59.781Z,7.17
2018-04-22T07:23:26.165Z,8.03
2018-04-22T07:25:53.302Z,7.27
2018-04-22T07:28:19.888Z,7.07
2018-04-22T07:30:46.682Z,7.90
2018-04-22T07:33:15.557Z,7.10
2018-04-22T07:35:43.437Z,6.83
2018-04-22T07:38:10.254Z,6.23
2018-04-22T07:40:37.045Z,5.53
2018-04-22T07:43:03.577Z,3.70
2018-04-22T07:45:29.988Z,4.23
2018-04-22T07:47:56.468Z,3.90
2018-04-22T07:50:24.906Z,4.03
2018-04-22T07:52:51.845Z,4.20
2018-04-22T07:55:18.618Z,4.07
2018-04-22T07:57:48.423Z,3.43
2018-04-22T08:00:15.968Z,3.80
2018-04-22T08:02:45.148Z,3.00
2018-04-22T08:05:13.201Z,3.70
2018-04-22T08:07:39.583Z,4.07
2018-04-22T08:10:07.036Z,3.40
2018-04-22T08:12:33.499Z,3.27
2018-04-22T08:14:59.929Z,3.90
2018-04-22T08:17:28.284Z,3.30
2018-04-22T08:19:55.449Z,3.93
2018-04-22T08:22:21.868Z,2.70
2018-04-22T08:24:49.829Z,3.40
2018-04-22T08:27:16.239Z,4.07
2018-04-22T08:29:44.911Z,3.80
2018-04-22T08:32:13.056Z,4.13
2018-04-22T08:34:39.656Z,3.13
2018-04-22T08:37:06.091Z,3.60
2018-04-22T08:39:32.908Z,3.47
2018-04-22T08:41:59.436Z,3.43
2018-04-22T08:44:25.972Z,3.73
2018-04-22T08:46:53.215Z,4.23
2018-04-22T08:49:19.812Z,4.10
2018-04-22T08:51:46.862Z,3.63
2018-04-22T08:54:14.287Z,3.43
2018-04-22T08:56:40.755Z,4.00
2018-04-22T08:59:07.375Z,4.13
2018-04-22T09:01:35.649Z,3.73
2018-04-22T09:04:03.631Z,3.80
2018-04-22T09:06:30.123Z,3.53
2018-04-22T09:08:57.273Z,4.67
2018-04-22T09:11:23.754Z,4.30
2018-04-22T09:13:50.576Z,3.70
2018-04-22T09:16:17.558Z,3.63
2018-04-22T09:18:44.592Z,4.20
2018-04-22T09:21:11.388Z,3.87
2018-04-22T09:23:37.887Z,4.20
2018-04-22T09:26:04.279Z,4.60
2018-04-22T09:28:30.721Z,5.73
2018-04-22T09:30:57.191Z,7.77
2018-04-22T09:33:25.094Z,6.73
2018-04-22T09:35:51.552Z,7.50
2018-04-22T09:38:19.355Z,7.40
2018-04-22T09:40:46.643Z,6.73
2018-04-22T09:43:13.008Z,6.77
2018-04-22T09:45:41.871Z,5.97
2018-04-22T09:48:08.461Z,5.70
2018-04-22T09:50:34.972Z,5.47
2018-04-22T09:53:01.935Z,5.60
2018-04-22T09:55:29.194Z,7.00
2018-04-22T09:57:55.648Z,6.70
2018-04-22T10:00:28.497Z,7.40
2018-04-22T10:02:56.040Z,6.93
2018-04-22T10:05:23.537Z,8.63
2018-04-22T10:07:50.256Z,7.23
2018-04-22T10:10:18.346Z,7.73
2018-04-22T10:12:44.840Z,7.03
2018-04-22T10:15:11.681Z,6.10
2018-04-22T10:17:38.207Z,5.70
2018-04-22T10:20:04.577Z,5.27
2018-04-22T10:22:31.125Z,5.57
2018-04-22T10:24:57.599Z,5.60
2018-04-22T10:27:24.051Z,5.27
2018-04-22T10:29:52.155Z,5.73
2018-04-22T10:32:19.615Z,7.40
2018-04-22T10:34:47.097Z,8.03
2018-04-22T10:37:14.506Z,7.80
2018-04-22T10:39:41.090Z,7.00
2018-04-22T10:42:08.682Z,6.50
2018-04-22T10:44:35.096Z,5.20
2018-04-22T10:47:02.587Z,5.30
2018-04-22T10:49:30.026Z,5.93
2018-04-22T10:51:56.746Z,5.47
2018-04-22T10:54:23.267Z,6.40
2018-04-22T10:56:51.179Z,5.60
2018-04-22T10:59:17.654Z,5.93
2018-04-22T11:01:44.850Z,6.40
2018-04-22T11:04:11.329Z,6.97
2018-04-22T11:06:37.788Z,6.30
2018-04-22T11:09:05.049Z,5.60
2018-04-22T11:11:33.554Z,6.10
2018-04-22T11:14:02.365Z,6.10
2018-04-22T11:16:28.847Z,6.00
2018-04-22T11:18:55.820Z,6.00
2018-04-22T11:21:22.672Z,6.70
2018-04-22T11:23:49.225Z,5.80
2018-04-22T11:26:16.451Z,6.33
2018-04-22T11:28:43.808Z,7.17
2018-04-22T11:31:10.385Z,7.20
2018-04-22T11:33:36.905Z,6.13
2018-04-22T11:36:03.339Z,6.60
2018-04-22T11:38:29.766Z,6.20
2018-04-22T11:40:56.519Z,5.50
2018-04-22T11:43:23.299Z,5.53
2018-04-22T11:45:50.535Z,6.33
2018-04-22T11:48:17.766Z,6.20
2018-04-22T11:50:44.511Z,5.90
2018-04-22T11:53:12.536Z,6.10
2018-04-22T11:55:39.136Z,5.83
2018-04-22T11:58:07.316Z,6.60
2018-04-22T12:00:34.631Z,7.10
2018-04-22T12:03:01.233Z,6.47
2018-04-22T12:05:29.919Z,5.07
2018-04-22T12:07:56.374Z,3.70
2018-04-22T12:10:25.350Z,4.90
2018-04-22T12:12:52.197Z,4.90
2018-04-22T12:15:19.802Z,5.10
2018-04-22T12:17:46.903Z,6.43
2018-04-22T12:20:13.988Z,5.40
2018-04-22T12:22:41.202Z,5.10
2018-04-22T12:25:07.865Z,4.30
2018-04-22T12:27:34.406Z,4.93
2018-04-22T12:30:00.769Z,4.57
2018-04-22T12:32:28.170Z,4.73
2018-04-22T12:34:54.709Z,5.73
2018-04-22T12:37:23.156Z,5.97
2018-04-22T12:39:50.914Z,6.30
2018-04-22T12:42:18.199Z,4.90
2018-04-22T12:44:45.566Z,5.27
2018-04-22T12:47:12.042Z,5.10
2018-04-22T12:49:38.559Z,4.87
2018-04-22T12:52:04.984Z,4.20
2018-04-22T12:54:32.173Z,4.30
2018-04-22T12:56:58.976Z,4.30
2018-04-22T12:59:26.671Z,4.60
2018-04-22T13:01:54.074Z,5.17
2018-04-22T13:04:20.742Z,5.70
2018-04-22T13:06:47.583Z,5.03
2018-04-22T13:09:15.414Z,5.50
2018-04-22T13:11:42.773Z,5.27
2018-04-22T13:14:10.126Z,6.33
2018-04-22T13:16:37.486Z,5.43
2018-04-22T13:19:06.232Z,4.70
2018-04-22T13:21:39.632Z,4.80
2018-04-22T13:24:08.879Z,5.07
2018-04-22T13:26:38.062Z,5.57
2018-04-22T13:29:04.650Z,7.07
2018-04-22T13:31:31.795Z,5.77
2018-04-22T13:33:58.631Z,5.00
2018-04-22T13:36:26.359Z,5.50
2018-04-22T13:38:52.766Z,5.80
2018-04-22T13:41:19.251Z,4.90
2018-04-22T13:43:45.763Z,4.73
2018-04-22T13:46:12.520Z,4.37
2018-04-22T13:48:39.060Z,4.43
2018-04-22T13:51:05.384Z,4.10
2018-04-22T13:53:31.916Z,4.27
2018-04-22T13:55:58.468Z,3.80
2018-04-22T13:58:25.968Z,4.33
2018-04-22T14:00:52.436Z,3.67
2018-04-22T14:03:18.865Z,3.73
2018-04-22T14:05:46.251Z,4.40
2018-04-22T14:08:12.789Z,3.60
2018-04-22T14:10:40.753Z,3.10
2018-04-22T14:13:08.816Z,3.50
2018-04-22T14:15:35.739Z,4.30
2018-04-22T14:18:03.138Z,3.40
2018-04-22T14:20:29.986Z,3.20
2018-04-22T14:22:56.649Z,3.40
2018-04-22T14:25:24.573Z,3.20
2018-04-22T14:27:53.725Z,3.30
2018-04-22T14:30:20.920Z,3.40
2018-04-22T14:32:47.380Z,3.20
2018-04-22T14:35:13.804Z,3.43
2018-04-22T14:37:40.263Z,4.27
2018-04-22T14:40:07.454Z,4.07
2018-04-22T14:42:34.639Z,3.30
2018-04-22T14:45:13.447Z,3.30
2018-04-22T14:47:41.105Z,3.83
2018-04-22T14:50:07.544Z,3.27
2018-04-22T14:52:34.010Z,2.87
2018-04-22T14:55:00.457Z,3.30
2018-04-22T14:57:28.510Z,3.07
2018-04-22T14:59:56.573Z,2.90
2018-04-22T15:02:23.445Z,2.43
2018-04-22T15:04:49.943Z,3.27
2018-04-22T15:07:16.383Z,3.43
2018-04-22T15:09:42.845Z,3.90
2018-04-22T15:12:10.880Z,4.13
2018-04-22T15:14:38.050Z,3.70
2018-04-22T15:17:04.464Z,4.30
2018-04-22T15:19:31.050Z,5.27
2018-04-22T15:21:57.449Z,4.37
2018-04-22T15:24:23.879Z,3.30
2018-04-22T15:26:51.016Z,3.27
2018-04-22T15:29:17.534Z,3.20
2018-04-22T15:31:44.008Z,3.73
2018-04-22T15:34:11.092Z,3.60
2018-04-22T15:36:37.925Z,4.03
2018-04-22T15:39:05.497Z,4.17
2018-04-22T15:41:31.978Z,3.80
2018-04-22T15:43:58.568Z,3.47
2018-04-22T15:46:25.361Z,4.20
2018-04-22T15:48:51.818Z,4.47
2018-04-22T15:51:18.668Z,4.17
2018-04-22T15:53:46.645Z,4.00
2018-04-22T15:56:13.829Z,4.20
2018-04-22T15:58:40.267Z,4.20
2018-04-22T16:01:07.138Z,4.27
2018-04-22T16:03:34.732Z,3.70
2018-04-22T16:06:01.623Z,4.20
2018-04-22T16:08:29.968Z,4.30
2018-04-22T16:10:57.206Z,4.00
2018-04-22T16:13:23.722Z,4.00
2018-04-22T16:15:50.138Z,3.93
2018-04-22T16:18:17.428Z,4.27
2018-04-22T16:20:43.902Z,3.70
2018-04-22T16:23:10.706Z,3.43
2018-04-22T16:25:38.219Z,3.47
2018-04-22T16:28:04.655Z,3.77
2018-04-22T16:30:32.715Z,4.30
2018-04-22T16:33:00.595Z,3.60
2018-04-22T16:35:27.154Z,3.70
2018-04-22T16:37:53.700Z,3.90
2018-04-22T16:40:20.241Z,3.23
2018-04-22T16:42:46.630Z,3.80
2018-04-22T16:45:13.293Z,3.60
2018-04-22T16:47:39.852Z,3.33
2018-04-22T16:50:13.443Z,4.13
2018-04-22T16:52:41.512Z,3.00
2018-04-22T16:55:08.114Z,3.70
2018-04-22T16:57:34.572Z,4.07
2018-04-22T17:00:01.798Z,3.00
2018-04-22T17:02:28.256Z,3.10
2018-04-22T17:04:55.458Z,3.20
2018-04-22T17:07:21.892Z,3.20
2018-04-22T17:09:48.417Z,3.20
2018-04-22T17:12:15.272Z,3.47
2018-04-22T17:14:41.763Z,3.10
2018-04-22T17:17:08.146Z,4.13
2018-04-22T17:19:34.561Z,3.50
2018-04-22T17:22:00.974Z,4.00
2018-04-22T17:24:27.378Z,3.90
2018-04-22T17:26:54.525Z,3.80
2018-04-22T17:29:21.330Z,3.30
2018-04-22T17:31:49.503Z,3.90
2018-04-22T17:34:15.958Z,2.90
2018-04-22T17:36:42.408Z,3.77
2018-04-22T17:39:09.110Z,3.87
2018-04-22T17:41:37.268Z,3.60
2018-04-22T17:44:05.417Z,4.20
2018-04-22T17:46:31.895Z,3.07
2018-04-22T17:48:59.214Z,3.67
2018-04-22T17:51:27.420Z,3.70
2018-04-22T17:53:54.159Z,3.87
2018-04-22T17:56:22.295Z,3.83
2018-04-22T17:58:48.883Z,3.60
2018-04-22T18:01:15.445Z,4.00
2018-04-22T18:03:41.999Z,4.10
2018-04-22T18:06:08.515Z,3.60
2018-04-22T18:08:35.408Z,4.53
2018-04-22T18:11:01.888Z,5.70
2018-04-22T18:13:29.835Z,5.60
2018-04-22T18:15:57.053Z,5.80
2018-04-22T18:18:24.677Z,5.20
2018-04-22T18:20:51.860Z,5.60
2018-04-22T18:23:18.284Z,5.37
2018-04-22T18:25:46.003Z,5.60
2018-04-22T18:28:12.450Z,5.90
2018-04-22T18:30:40.562Z,6.23
2018-04-22T18:33:07.249Z,5.37
2018-04-22T18:35:34.409Z,5.50
2018-04-22T18:38:00.910Z,4.73
2018-04-22T18:40:27.363Z,5.97
2018-04-22T18:42:54.185Z,5.27
2018-04-22T18:45:20.955Z,4.80
2018-04-22T18:47:47.545Z,5.70
2018-04-22T18:50:13.969Z,4.90
2018-04-22T18:52:41.563Z,5.10
2018-04-22T18:55:08.160Z,4.77
2018-04-22T18:57:34.634Z,5.47
2018-04-22T19:00:01.087Z,4.53
2018-04-22T19:02:28.691Z,4.80
2018-04-22T19:04:55.102Z,5.03
2018-04-22T19:07:21.558Z,5.37
2018-04-22T19:09:48.461Z,4.70
2018-04-22T19:12:15.551Z,4.90
2018-04-22T19:14:42.042Z,4.23
2018-04-22T19:17:08.765Z,4.70
2018-04-22T19:19:36.010Z,4.90
2018-04-22T19:22:02.740Z,5.67
2018-04-22T19:24:29.232Z,5.57
2018-04-22T19:26:55.582Z,5.47
2018-04-22T19:29:22.000Z,6.30
2018-04-22T19:31:48.738Z,5.10
2018-04-22T19:34:15.190Z,5.30
2018-04-22T19:36:41.729Z,5.00
2018-04-22T19:39:09.843Z,4.70
2018-04-22T19:41:36.275Z,5.13
2018-04-22T19:44:04.468Z,5.20
2018-04-22T19:46:31.871Z,4.77
2018-04-22T19:48:59.455Z,5.20
2018-04-22T19:51:25.828Z,4.63
2018-04-22T19:53:52.955Z,4.60
2018-04-22T19:56:20.601Z,5.00
2018-04-22T19:58:47.758Z,6.13
2018-04-22T20:01:14.208Z,4.87
2018-04-22T20:03:40.719Z,5.23
2018-04-22T20:06:07.392Z,5.60
2018-04-22T20:08:34.357Z,5.00
2018-04-22T20:11:02.135Z,5.00
2018-04-22T20:13:34.454Z,6.07
2018-04-22T20:16:02.435Z,5.50
2018-04-22T20:18:29.107Z,4.83
2018-04-22T20:20:56.916Z,5.20
2018-04-22T20:23:23.401Z,5.67
2018-04-22T20:25:49.892Z,5.50
2018-04-22T20:28:16.422Z,6.37
2018-04-22T20:30:44.722Z,5.73
2018-04-22T20:33:11.235Z,6.80
2018-04-22T20:35:38.740Z,6.13
2018-04-22T20:38:10.072Z,5.87
2018-04-22T20:40:38.818Z,5.90
2018-04-22T20:43:05.214Z,5.70
2018-04-22T20:45:32.134Z,5.47
2018-04-22T20:50:37.499Z,5.60
2018-04-22T20:53:05.610Z,6.93
2018-04-22T20:55:36.648Z,6.60
2018-04-22T20:58:06.619Z,5.20
2018-04-22T21:00:36.863Z,5.00
2018-04-22T21:03:05.572Z,5.27
2018-04-22T21:05:35.078Z,5.73
2018-04-22T21:08:05.176Z,6.33
2018-04-22T21:10:32.448Z,5.60
2018-04-22T21:13:02.426Z,6.00
2018-04-22T21:15:31.123Z,5.90
2018-04-22T21:17:58.976Z,5.60
2018-04-22T21:20:26.864Z,6.03
2018-04-22T21:22:55.091Z,5.33
2018-04-22T21:25:22.887Z,5.03
2018-04-22T21:27:51.720Z,5.87
2018-04-22T21:30:18.570Z,6.17
2018-04-22T21:32:46.651Z,6.20
2018-04-22T21:35:16.006Z,6.33
2018-04-22T21:37:45.385Z,5.73
2018-04-22T21:40:14.768Z,5.90
2018-04-22T21:42:45.175Z,5.47
2018-04-22T21:45:12.177Z,5.43
2018-04-22T21:47:39.397Z,6.03
2018-04-22T21:50:05.768Z,5.97
2018-04-22T21:52:32.136Z,6.03
2018-04-22T21:54:58.508Z,6.70
2018-04-22T21:57:25.440Z,6.63
2018-04-22T21:59:51.872Z,5.63
2018-04-22T22:02:18.239Z,6.53
2018-04-22T22:04:44.644Z,6.60
2018-04-22T22:07:11.116Z,7.17
2018-04-22T22:09:38.284Z,6.13
2018-04-22T22:12:04.917Z,7.17
2018-04-22T22:14:31.325Z,5.83
2018-04-22T22:16:58.591Z,5.87
2018-04-22T22:19:25.030Z,6.90
2018-04-22T22:21:52.557Z,6.20
2018-04-22T22:24:20.715Z,6.80
2018-04-22T22:26:47.119Z,7.30
2018-04-22T22:29:13.549Z,6.27
2018-04-22T22:31:40.008Z,6.80
2018-04-22T22:36:39.535Z,7.37
2018-04-22T22:39:05.966Z,6.90
2018-04-22T22:41:33.131Z,7.03
2018-04-22T22:43:59.520Z,7.13
2018-04-22T22:46:26.136Z,6.73
2018-04-22T22:48:53.371Z,7.10
2018-04-22T22:51:19.805Z,6.83
2018-04-22T22:53:46.274Z,7.20
2018-04-22T22:56:12.750Z,7.00
2018-04-22T22:58:39.308Z,6.97
2018-04-22T23:01:05.753Z,7.17
2018-04-22T23:03:32.147Z,7.50
2018-04-22T23:05:58.581Z,7.47
2018-04-22T23:08:24.976Z,6.70
2018-04-22T23:10:51.687Z,8.10
2018-04-22T23:13:18.141Z,7.00
2018-04-22T23:15:44.662Z,8.97
2018-04-22T23:18:12.519Z,7.00
2018-04-22T23:20:39.356Z,6.83
2018-04-22T23:23:05.719Z,8.40
2018-04-22T23:25:32.091Z,7.70
2018-04-22T23:27:58.470Z,7.27
2018-04-22T23:30:24.870Z,7.30
2018-04-22T23:32:52.375Z,7.70
2018-04-22T23:35:18.769Z,7.40
2018-04-22T23:37:45.268Z,7.37
2018-04-22T23:40:11.632Z,7.83
2018-04-22T23:42:38.152Z,7.50
2018-04-22T23:45:04.672Z,6.83
2018-04-22T23:47:31.160Z,7.20
2018-04-22T23:49:57.611Z,6.93
2018-04-22T23:52:24.886Z,6.63
2018-04-22T23:54:51.337Z,6.87
2018-04-22T23:57:17.792Z,7.20
2018-04-22T23:59:44.583Z,7.10
